sensor_id;sensor_type;location;lat;lon;timestamp;temperature;humidity
24614;DHT22;12760;46.296;25.290;2022-12-11T00:00:16;12.40;99.90
24614;DHT22;12760;46.296;25.290;2022-12-11T00:02:42;12.40;99.90
24614;DHT22;12760;46.296;25.290;2022-12-11T00:05:08;12.40;99.90
24614;DHT22;12760;46.296;25.290;2022-12-11T00:07:34;12.50;99.90
24614;DHT22;12760;46.296;25.290;2022-12-11T00:10:00;12.50;99.90
24614;DHT22;12760;46.296;25.290;2022-12-11T00:12:25;12.50;99.90
24614;DHT22;12760;46.296;25.290;2022-12-11T00:14:51;12.60;99.90
24614;DHT22;12760;46.296;25.290;2022-12-11T00:17:17;12.60;99.90
24614;DHT22;12760;46.296;25.290;2022-12-11T00:19:43;12.70;99.90
24614;DHT22;12760;46.296;25.290;2022-12-11T00:22:09;12.70;99.90
24614;DHT22;12760;46.296;25.290;2022-12-11T00:24:34;12.70;99.90
24614;DHT22;12760;46.296;25.290;2022-12-11T00:27:00;12.70;99.90
24614;DHT22;12760;46.296;25.290;2022-12-11T00:29:26;12.60;99.90
24614;DHT22;12760;46.296;25.290;2022-12-11T00:31:51;12.60;99.90
24614;DHT22;12760;46.296;25.290;2022-12-11T00:34:17;12.70;99.90
24614;DHT22;12760;46.296;25.290;2022-12-11T00:36:43;12.60;99.90
24614;DHT22;12760;46.296;25.290;2022-12-11T00:39:08;12.60;99.90
24614;DHT22;12760;46.296;25.290;2022-12-11T00:41:34;12.50;99.90
24614;DHT22;12760;46.296;25.290;2022-12-11T00:44:00;12.50;99.90
24614;DHT22;12760;46.296;25.290;2022-12-11T00:46:26;12.40;99.90
24614;DHT22;12760;46.296;25.290;2022-12-11T00:48:51;12.30;99.90
24614;DHT22;12760;46.296;25.290;2022-12-11T00:51:18;12.30;99.90
24614;DHT22;12760;46.296;25.290;2022-12-11T00:53:43;12.30;99.90
24614;DHT22;12760;46.296;25.290;2022-12-11T00:56:15;12.20;99.90
24614;DHT22;12760;46.296;25.290;2022-12-11T00:58:42;12.10;99.90
24614;DHT22;12760;46.296;25.290;2022-12-11T01:01:14;12.00;99.90
24614;DHT22;12760;46.296;25.290;2022-12-11T01:03:40;12.10;99.90
24614;DHT22;12760;46.296;25.290;2022-12-11T01:06:06;12.10;99.90
24614;DHT22;12760;46.296;25.290;2022-12-11T01:08:32;12.10;99.90
24614;DHT22;12760;46.296;25.290;2022-12-11T01:11:03;12.10;99.90
24614;DHT22;12760;46.296;25.290;2022-12-11T01:13:30;12.20;99.90
24614;DHT22;12760;46.296;25.290;2022-12-11T01:15:55;12.20;99.90
24614;DHT22;12760;46.296;25.290;2022-12-11T01:18:21;12.20;99.90
24614;DHT22;12760;46.296;25.290;2022-12-11T01:20:47;12.20;99.90
24614;DHT22;12760;46.296;25.290;2022-12-11T01:23:13;12.30;99.90
24614;DHT22;12760;46.296;25.290;2022-12-11T01:25:40;12.30;99.90
24614;DHT22;12760;46.296;25.290;2022-12-11T01:28:07;12.30;99.90
24614;DHT22;12760;46.296;25.290;2022-12-11T01:30:33;12.50;99.90
24614;DHT22;12760;46.296;25.290;2022-12-11T01:33:00;12.60;99.90
24614;DHT22;12760;46.296;25.290;2022-12-11T01:35:26;12.60;99.90
24614;DHT22;12760;46.296;25.290;2022-12-11T01:37:52;12.70;99.90
24614;DHT22;12760;46.296;25.290;2022-12-11T01:40:19;12.70;99.90
24614;DHT22;12760;46.296;25.290;2022-12-11T01:42:45;12.90;99.90
24614;DHT22;12760;46.296;25.290;2022-12-11T01:48:17;13.10;99.90
24614;DHT22;12760;46.296;25.290;2022-12-11T01:50:53;13.10;99.90
24614;DHT22;12760;46.296;25.290;2022-12-11T01:53:33;13.10;99.90
24614;DHT22;12760;46.296;25.290;2022-12-11T01:56:00;13.20;99.90
24614;DHT22;12760;46.296;25.290;2022-12-11T01:58:30;13.20;99.90
24614;DHT22;12760;46.296;25.290;2022-12-11T02:00:57;13.20;99.90
24614;DHT22;12760;46.296;25.290;2022-12-11T02:03:24;13.20;99.90
24614;DHT22;12760;46.296;25.290;2022-12-11T02:05:49;13.30;99.90
24614;DHT22;12760;46.296;25.290;2022-12-11T02:08:15;13.30;99.90
24614;DHT22;12760;46.296;25.290;2022-12-11T02:13:33;13.40;99.90
24614;DHT22;12760;46.296;25.290;2022-12-11T02:16:57;13.40;99.90
24614;DHT22;12760;46.296;25.290;2022-12-11T02:19:44;13.40;99.90
24614;DHT22;12760;46.296;25.290;2022-12-11T02:22:21;13.40;99.90
24614;DHT22;12760;46.296;25.290;2022-12-11T02:27:43;13.40;99.90
24614;DHT22;12760;46.296;25.290;2022-12-11T02:30:12;13.40;99.90
24614;DHT22;12760;46.296;25.290;2022-12-11T02:32:45;13.30;99.90
24614;DHT22;12760;46.296;25.290;2022-12-11T02:35:21;13.30;99.90
24614;DHT22;12760;46.296;25.290;2022-12-11T02:37:55;13.20;99.90
24614;DHT22;12760;46.296;25.290;2022-12-11T02:40:24;13.20;99.90
24614;DHT22;12760;46.296;25.290;2022-12-11T02:42:51;13.30;99.90
24614;DHT22;12760;46.296;25.290;2022-12-11T02:45:19;13.30;99.90
24614;DHT22;12760;46.296;25.290;2022-12-11T02:47:47;13.40;99.90
24614;DHT22;12760;46.296;25.290;2022-12-11T02:50:17;13.40;99.90
24614;DHT22;12760;46.296;25.290;2022-12-11T02:52:44;13.50;99.90
24614;DHT22;12760;46.296;25.290;2022-12-11T02:55:11;13.50;99.90
24614;DHT22;12760;46.296;25.290;2022-12-11T02:57:44;13.40;99.90
24614;DHT22;12760;46.296;25.290;2022-12-11T03:00:12;13.50;99.90
24614;DHT22;12760;46.296;25.290;2022-12-11T03:02:38;13.40;99.90
24614;DHT22;12760;46.296;25.290;2022-12-11T03:05:04;13.50;99.90
24614;DHT22;12760;46.296;25.290;2022-12-11T03:07:36;13.50;99.90
24614;DHT22;12760;46.296;25.290;2022-12-11T03:10:05;13.40;99.90
24614;DHT22;12760;46.296;25.290;2022-12-11T03:12:34;13.40;99.90
24614;DHT22;12760;46.296;25.290;2022-12-11T03:15:03;13.30;99.90
24614;DHT22;12760;46.296;25.290;2022-12-11T03:17:37;13.20;99.90
24614;DHT22;12760;46.296;25.290;2022-12-11T03:22:44;13.10;99.90
24614;DHT22;12760;46.296;25.290;2022-12-11T03:25:19;13.10;99.90
24614;DHT22;12760;46.296;25.290;2022-12-11T03:30:35;13.20;99.90
24614;DHT22;12760;46.296;25.290;2022-12-11T03:33:16;13.30;99.90
24614;DHT22;12760;46.296;25.290;2022-12-11T03:35:47;13.30;99.90
24614;DHT22;12760;46.296;25.290;2022-12-11T03:39:19;13.20;99.90
24614;DHT22;12760;46.296;25.290;2022-12-11T03:41:26;13.40;99.90
24614;DHT22;12760;46.296;25.290;2022-12-11T03:43:55;13.40;99.90
24614;DHT22;12760;46.296;25.290;2022-12-11T03:46:23;13.50;99.90
24614;DHT22;12760;46.296;25.290;2022-12-11T03:48:49;13.50;99.90
24614;DHT22;12760;46.296;25.290;2022-12-11T03:51:17;13.50;99.90
24614;DHT22;12760;46.296;25.290;2022-12-11T03:53:44;13.60;99.90
24614;DHT22;12760;46.296;25.290;2022-12-11T03:56:12;13.60;99.90
24614;DHT22;12760;46.296;25.290;2022-12-11T03:58:39;13.70;99.90
24614;DHT22;12760;46.296;25.290;2022-12-11T04:01:08;13.80;99.90
24614;DHT22;12760;46.296;25.290;2022-12-11T04:03:34;13.90;99.90
24614;DHT22;12760;46.296;25.290;2022-12-11T04:06:00;13.90;99.90
24614;DHT22;12760;46.296;25.290;2022-12-11T04:08:26;14.00;99.90
24614;DHT22;12760;46.296;25.290;2022-12-11T04:10:52;14.00;99.90
24614;DHT22;12760;46.296;25.290;2022-12-11T04:13:39;14.00;99.90
24614;DHT22;12760;46.296;25.290;2022-12-11T04:16:05;14.00;99.90
24614;DHT22;12760;46.296;25.290;2022-12-11T04:18:31;14.00;99.90
24614;DHT22;12760;46.296;25.290;2022-12-11T04:21:15;14.00;99.90
24614;DHT22;12760;46.296;25.290;2022-12-11T04:23:59;14.00;99.90
24614;DHT22;12760;46.296;25.290;2022-12-11T04:26:41;14.00;99.90
24614;DHT22;12760;46.296;25.290;2022-12-11T04:29:07;14.10;99.90
24614;DHT22;12760;46.296;25.290;2022-12-11T04:31:33;14.10;99.90
24614;DHT22;12760;46.296;25.290;2022-12-11T04:33:58;14.10;99.90
24614;DHT22;12760;46.296;25.290;2022-12-11T04:36:24;14.10;99.90
24614;DHT22;12760;46.296;25.290;2022-12-11T04:38:50;14.00;99.90
24614;DHT22;12760;46.296;25.290;2022-12-11T04:41:16;14.10;99.90
24614;DHT22;12760;46.296;25.290;2022-12-11T04:43:42;14.10;99.90
24614;DHT22;12760;46.296;25.290;2022-12-11T04:46:17;14.10;99.90
24614;DHT22;12760;46.296;25.290;2022-12-11T04:48:43;14.10;99.90
24614;DHT22;12760;46.296;25.290;2022-12-11T04:51:09;14.10;99.90
24614;DHT22;12760;46.296;25.290;2022-12-11T04:53:35;14.00;99.90
24614;DHT22;12760;46.296;25.290;2022-12-11T04:56:05;14.00;99.90
24614;DHT22;12760;46.296;25.290;2022-12-11T04:58:31;14.00;99.90
24614;DHT22;12760;46.296;25.290;2022-12-11T05:00:57;14.10;99.90
24614;DHT22;12760;46.296;25.290;2022-12-11T05:03:22;14.10;99.90
24614;DHT22;12760;46.296;25.290;2022-12-11T05:05:49;14.10;99.90
24614;DHT22;12760;46.296;25.290;2022-12-11T05:08:20;14.10;99.90
24614;DHT22;12760;46.296;25.290;2022-12-11T05:10:58;14.10;99.90
24614;DHT22;12760;46.296;25.290;2022-12-11T05:13:26;14.10;99.90
24614;DHT22;12760;46.296;25.290;2022-12-11T05:15:52;14.00;99.90
24614;DHT22;12760;46.296;25.290;2022-12-11T05:18:17;14.10;99.90
24614;DHT22;12760;46.296;25.290;2022-12-11T05:20:43;14.10;99.90
24614;DHT22;12760;46.296;25.290;2022-12-11T05:23:10;14.10;99.90
24614;DHT22;12760;46.296;25.290;2022-12-11T05:25:36;14.10;99.90
24614;DHT22;12760;46.296;25.290;2022-12-11T05:28:01;14.10;99.90
24614;DHT22;12760;46.296;25.290;2022-12-11T05:30:27;14.10;99.90
24614;DHT22;12760;46.296;25.290;2022-12-11T05:32:53;14.10;99.90
24614;DHT22;12760;46.296;25.290;2022-12-11T05:35:18;14.00;99.90
24614;DHT22;12760;46.296;25.290;2022-12-11T05:37:44;14.10;99.90
24614;DHT22;12760;46.296;25.290;2022-12-11T05:40:10;14.10;99.90
24614;DHT22;12760;46.296;25.290;2022-12-11T05:42:39;14.10;99.90
24614;DHT22;12760;46.296;25.290;2022-12-11T05:45:05;14.10;99.90
24614;DHT22;12760;46.296;25.290;2022-12-11T05:47:31;14.10;99.90
24614;DHT22;12760;46.296;25.290;2022-12-11T05:49:57;14.00;99.90
24614;DHT22;12760;46.296;25.290;2022-12-11T05:52:22;14.10;99.90
24614;DHT22;12760;46.296;25.290;2022-12-11T05:54:49;14.10;99.90
24614;DHT22;12760;46.296;25.290;2022-12-11T05:57:15;14.00;99.90
24614;DHT22;12760;46.296;25.290;2022-12-11T05:59:41;14.10;99.90
24614;DHT22;12760;46.296;25.290;2022-12-11T06:02:06;14.10;99.90
24614;DHT22;12760;46.296;25.290;2022-12-11T06:04:32;14.10;99.90
24614;DHT22;12760;46.296;25.290;2022-12-11T06:06:58;14.10;99.90
24614;DHT22;12760;46.296;25.290;2022-12-11T06:09:23;14.10;99.90
24614;DHT22;12760;46.296;25.290;2022-12-11T06:11:49;14.10;99.90
24614;DHT22;12760;46.296;25.290;2022-12-11T06:14:15;14.20;99.90
24614;DHT22;12760;46.296;25.290;2022-12-11T06:16:40;14.20;99.90
24614;DHT22;12760;46.296;25.290;2022-12-11T06:19:12;14.20;99.90
24614;DHT22;12760;46.296;25.290;2022-12-11T06:21:39;14.20;99.90
24614;DHT22;12760;46.296;25.290;2022-12-11T06:24:05;14.20;99.90
24614;DHT22;12760;46.296;25.290;2022-12-11T06:26:31;14.20;99.90
24614;DHT22;12760;46.296;25.290;2022-12-11T06:28:56;14.20;99.90
24614;DHT22;12760;46.296;25.290;2022-12-11T06:31:22;14.10;99.90
24614;DHT22;12760;46.296;25.290;2022-12-11T06:33:48;14.10;99.90
24614;DHT22;12760;46.296;25.290;2022-12-11T06:36:19;14.10;99.90
24614;DHT22;12760;46.296;25.290;2022-12-11T06:38:45;14.10;99.90
24614;DHT22;12760;46.296;25.290;2022-12-11T06:41:12;14.10;99.90
24614;DHT22;12760;46.296;25.290;2022-12-11T06:43:40;14.20;99.90
24614;DHT22;12760;46.296;25.290;2022-12-11T06:46:07;14.30;99.90
24614;DHT22;12760;46.296;25.290;2022-12-11T06:48:33;14.30;99.90
24614;DHT22;12760;46.296;25.290;2022-12-11T06:50:59;14.40;99.90
24614;DHT22;12760;46.296;25.290;2022-12-11T06:53:24;14.30;99.90
24614;DHT22;12760;46.296;25.290;2022-12-11T06:55:50;14.40;99.90
24614;DHT22;12760;46.296;25.290;2022-12-11T06:58:16;14.40;99.90
24614;DHT22;12760;46.296;25.290;2022-12-11T07:00:41;14.40;99.90
24614;DHT22;12760;46.296;25.290;2022-12-11T07:03:08;14.40;99.90
24614;DHT22;12760;46.296;25.290;2022-12-11T07:05:34;14.40;99.90
24614;DHT22;12760;46.296;25.290;2022-12-11T07:08:00;14.40;99.90
24614;DHT22;12760;46.296;25.290;2022-12-11T07:10:26;14.40;99.90
24614;DHT22;12760;46.296;25.290;2022-12-11T07:12:52;14.40;99.90
24614;DHT22;12760;46.296;25.290;2022-12-11T07:15:18;14.40;99.90
24614;DHT22;12760;46.296;25.290;2022-12-11T07:17:44;14.40;99.90
24614;DHT22;12760;46.296;25.290;2022-12-11T07:20:10;14.50;99.90
24614;DHT22;12760;46.296;25.290;2022-12-11T07:22:35;14.50;99.90
24614;DHT22;12760;46.296;25.290;2022-12-11T07:25:02;14.40;99.90
24614;DHT22;12760;46.296;25.290;2022-12-11T07:27:28;14.50;99.90
24614;DHT22;12760;46.296;25.290;2022-12-11T07:29:53;14.40;99.90
24614;DHT22;12760;46.296;25.290;2022-12-11T07:32:20;14.40;99.90
24614;DHT22;12760;46.296;25.290;2022-12-11T07:34:47;14.40;99.90
24614;DHT22;12760;46.296;25.290;2022-12-11T07:37:13;14.40;99.90
24614;DHT22;12760;46.296;25.290;2022-12-11T07:39:39;14.40;99.90
24614;DHT22;12760;46.296;25.290;2022-12-11T07:42:04;14.30;99.90
24614;DHT22;12760;46.296;25.290;2022-12-11T07:44:30;14.30;99.90
24614;DHT22;12760;46.296;25.290;2022-12-11T07:46:56;14.30;99.90
24614;DHT22;12760;46.296;25.290;2022-12-11T07:49:22;14.30;99.90
24614;DHT22;12760;46.296;25.290;2022-12-11T07:51:47;14.10;99.90
24614;DHT22;12760;46.296;25.290;2022-12-11T07:54:14;14.00;99.90
24614;DHT22;12760;46.296;25.290;2022-12-11T07:56:45;14.00;99.90
24614;DHT22;12760;46.296;25.290;2022-12-11T07:59:12;13.90;99.90
24614;DHT22;12760;46.296;25.290;2022-12-11T08:01:38;13.90;99.90
24614;DHT22;12760;46.296;25.290;2022-12-11T08:04:09;13.90;99.90
24614;DHT22;12760;46.296;25.290;2022-12-11T08:06:36;13.90;99.90
24614;DHT22;12760;46.296;25.290;2022-12-11T08:09:05;13.90;99.90
24614;DHT22;12760;46.296;25.290;2022-12-11T08:11:32;13.80;99.90
24614;DHT22;12760;46.296;25.290;2022-12-11T08:13:58;13.60;99.90
24614;DHT22;12760;46.296;25.290;2022-12-11T08:16:24;13.50;99.90
24614;DHT22;12760;46.296;25.290;2022-12-11T08:18:51;13.50;99.90
24614;DHT22;12760;46.296;25.290;2022-12-11T08:21:22;13.50;99.90
24614;DHT22;12760;46.296;25.290;2022-12-11T08:23:49;13.60;99.90
24614;DHT22;12760;46.296;25.290;2022-12-11T08:26:20;13.70;99.90
24614;DHT22;12760;46.296;25.290;2022-12-11T08:28:46;13.70;99.90
24614;DHT22;12760;46.296;25.290;2022-12-11T08:31:16;13.80;99.90
24614;DHT22;12760;46.296;25.290;2022-12-11T08:33:43;13.80;99.90
24614;DHT22;12760;46.296;25.290;2022-12-11T08:36:11;13.80;99.90
24614;DHT22;12760;46.296;25.290;2022-12-11T08:38:37;13.90;99.90
24614;DHT22;12760;46.296;25.290;2022-12-11T08:41:17;13.90;99.90
24614;DHT22;12760;46.296;25.290;2022-12-11T08:43:43;13.90;99.90
24614;DHT22;12760;46.296;25.290;2022-12-11T08:46:10;13.90;99.90
24614;DHT22;12760;46.296;25.290;2022-12-11T08:48:38;13.90;99.90
24614;DHT22;12760;46.296;25.290;2022-12-11T08:51:07;13.90;99.90
24614;DHT22;12760;46.296;25.290;2022-12-11T08:53:33;14.00;99.90
24614;DHT22;12760;46.296;25.290;2022-12-11T08:56:07;14.00;99.90
24614;DHT22;12760;46.296;25.290;2022-12-11T08:58:33;14.10;99.90
24614;DHT22;12760;46.296;25.290;2022-12-11T09:00:58;14.20;99.90
24614;DHT22;12760;46.296;25.290;2022-12-11T09:03:24;14.10;99.90
24614;DHT22;12760;46.296;25.290;2022-12-11T09:05:50;14.10;99.90
24614;DHT22;12760;46.296;25.290;2022-12-11T09:08:16;14.10;99.90
24614;DHT22;12760;46.296;25.290;2022-12-11T09:10:42;14.10;99.90
24614;DHT22;12760;46.296;25.290;2022-12-11T09:13:08;14.20;99.90
24614;DHT22;12760;46.296;25.290;2022-12-11T09:15:33;14.30;99.90
24614;DHT22;12760;46.296;25.290;2022-12-11T09:18:00;14.30;99.90
24614;DHT22;12760;46.296;25.290;2022-12-11T09:20:26;14.30;99.90
24614;DHT22;12760;46.296;25.290;2022-12-11T09:22:51;14.30;99.90
24614;DHT22;12760;46.296;25.290;2022-12-11T09:25:17;14.30;99.90
24614;DHT22;12760;46.296;25.290;2022-12-11T09:27:43;14.30;99.90
24614;DHT22;12760;46.296;25.290;2022-12-11T09:30:09;14.10;99.90
24614;DHT22;12760;46.296;25.290;2022-12-11T09:32:34;14.20;99.90
24614;DHT22;12760;46.296;25.290;2022-12-11T09:35:00;14.20;99.90
24614;DHT22;12760;46.296;25.290;2022-12-11T09:37:26;14.20;99.90
24614;DHT22;12760;46.296;25.290;2022-12-11T09:39:51;14.20;99.90
24614;DHT22;12760;46.296;25.290;2022-12-11T09:42:31;14.20;99.90
24614;DHT22;12760;46.296;25.290;2022-12-11T09:45:12;14.20;99.90
24614;DHT22;12760;46.296;25.290;2022-12-11T09:47:47;14.20;99.90
24614;DHT22;12760;46.296;25.290;2022-12-11T09:55:25;14.00;99.90
24614;DHT22;12760;46.296;25.290;2022-12-11T10:03:38;13.80;99.90
24614;DHT22;12760;46.296;25.290;2022-12-11T10:06:19;13.70;99.90
24614;DHT22;12760;46.296;25.290;2022-12-11T10:09:32;13.60;99.90
24614;DHT22;12760;46.296;25.290;2022-12-11T10:13:00;13.50;99.90
24614;DHT22;12760;46.296;25.290;2022-12-11T10:17:55;13.10;99.90
24614;DHT22;12760;46.296;25.290;2022-12-11T10:20:29;13.10;99.90
24614;DHT22;12760;46.296;25.290;2022-12-11T10:23:00;13.10;99.90
24614;DHT22;12760;46.296;25.290;2022-12-11T10:25:32;13.00;99.90
24614;DHT22;12760;46.296;25.290;2022-12-11T10:28:11;12.80;99.90
24614;DHT22;12760;46.296;25.290;2022-12-11T10:30:43;12.80;99.90
24614;DHT22;12760;46.296;25.290;2022-12-11T10:35:50;12.80;99.90
24614;DHT22;12760;46.296;25.290;2022-12-11T10:38:33;12.80;99.90
24614;DHT22;12760;46.296;25.290;2022-12-11T10:41:11;12.80;99.90
24614;DHT22;12760;46.296;25.290;2022-12-11T10:43:41;12.80;99.90
24614;DHT22;12760;46.296;25.290;2022-12-11T10:46:28;12.70;99.90
24614;DHT22;12760;46.296;25.290;2022-12-11T10:48:59;12.80;99.90
24614;DHT22;12760;46.296;25.290;2022-12-11T10:51:34;12.70;99.90
24614;DHT22;12760;46.296;25.290;2022-12-11T10:54:15;12.70;99.90
24614;DHT22;12760;46.296;25.290;2022-12-11T10:56:45;12.60;99.90
24614;DHT22;12760;46.296;25.290;2022-12-11T10:59:22;12.50;99.90
24614;DHT22;12760;46.296;25.290;2022-12-11T11:01:49;12.50;99.90
24614;DHT22;12760;46.296;25.290;2022-12-11T11:04:21;12.30;99.90
24614;DHT22;12760;46.296;25.290;2022-12-11T11:06:47;12.20;99.90
24614;DHT22;12760;46.296;25.290;2022-12-11T11:09:29;12.10;99.90
24614;DHT22;12760;46.296;25.290;2022-12-11T11:11:55;12.10;99.90
24614;DHT22;12760;46.296;25.290;2022-12-11T11:14:21;12.10;99.90
24614;DHT22;12760;46.296;25.290;2022-12-11T11:16:49;12.10;99.90
24614;DHT22;12760;46.296;25.290;2022-12-11T11:21:57;12.10;99.90
24614;DHT22;12760;46.296;25.290;2022-12-11T11:24:27;12.10;99.90
24614;DHT22;12760;46.296;25.290;2022-12-11T11:26:53;11.90;99.90
24614;DHT22;12760;46.296;25.290;2022-12-11T11:29:29;11.80;99.90
24614;DHT22;12760;46.296;25.290;2022-12-11T11:32:11;11.70;99.90
24614;DHT22;12760;46.296;25.290;2022-12-11T11:34:38;11.50;99.90
24614;DHT22;12760;46.296;25.290;2022-12-11T11:37:04;11.60;99.90
24614;DHT22;12760;46.296;25.290;2022-12-11T11:39:34;11.50;99.90
24614;DHT22;12760;46.296;25.290;2022-12-11T11:42:18;11.60;99.90
24614;DHT22;12760;46.296;25.290;2022-12-11T11:44:59;11.60;99.90
24614;DHT22;12760;46.296;25.290;2022-12-11T11:47:33;11.70;99.90
24614;DHT22;12760;46.296;25.290;2022-12-11T11:50:18;11.50;99.90
24614;DHT22;12760;46.296;25.290;2022-12-11T11:52:57;11.60;99.90
24614;DHT22;12760;46.296;25.290;2022-12-11T11:55:50;11.70;99.90
24614;DHT22;12760;46.296;25.290;2022-12-11T11:58:29;11.60;99.90
24614;DHT22;12760;46.296;25.290;2022-12-11T12:00:58;11.50;99.90
24614;DHT22;12760;46.296;25.290;2022-12-11T12:03:24;11.40;99.90
24614;DHT22;12760;46.296;25.290;2022-12-11T12:08:43;11.30;99.90
24614;DHT22;12760;46.296;25.290;2022-12-11T12:11:34;11.20;99.90
24614;DHT22;12760;46.296;25.290;2022-12-11T12:20:18;11.00;99.90
24614;DHT22;12760;46.296;25.290;2022-12-11T12:25:40;11.10;99.90
24614;DHT22;12760;46.296;25.290;2022-12-11T12:34:04;11.00;99.90
24614;DHT22;12760;46.296;25.290;2022-12-11T12:39:40;10.70;99.90
24614;DHT22;12760;46.296;25.290;2022-12-11T12:45:48;10.40;99.90
24614;DHT22;12760;46.296;25.290;2022-12-11T12:48:16;10.40;99.90
24614;DHT22;12760;46.296;25.290;2022-12-11T12:50:47;10.40;99.90
24614;DHT22;12760;46.296;25.290;2022-12-11T12:53:19;10.50;99.90
24614;DHT22;12760;46.296;25.290;2022-12-11T12:55:47;10.50;99.90
24614;DHT22;12760;46.296;25.290;2022-12-11T12:58:38;10.50;99.90
24614;DHT22;12760;46.296;25.290;2022-12-11T13:01:18;10.60;99.90
24614;DHT22;12760;46.296;25.290;2022-12-11T13:06:35;10.70;99.90
24614;DHT22;12760;46.296;25.290;2022-12-11T13:09:16;10.70;99.90
24614;DHT22;12760;46.296;25.290;2022-12-11T13:11:42;10.70;99.90
24614;DHT22;12760;46.296;25.290;2022-12-11T13:16:50;10.70;99.90
24614;DHT22;12760;46.296;25.290;2022-12-11T13:24:31;10.70;99.90
24614;DHT22;12760;46.296;25.290;2022-12-11T13:27:53;10.50;99.90
24614;DHT22;12760;46.296;25.290;2022-12-11T13:30:07;10.40;99.90
24614;DHT22;12760;46.296;25.290;2022-12-11T13:33:03;10.30;99.90
24614;DHT22;12760;46.296;25.290;2022-12-11T13:35:31;10.30;99.90
24614;DHT22;12760;46.296;25.290;2022-12-11T13:38:07;10.40;99.90
24614;DHT22;12760;46.296;25.290;2022-12-11T13:40:40;10.40;99.90
24614;DHT22;12760;46.296;25.290;2022-12-11T13:43:19;10.40;99.90
24614;DHT22;12760;46.296;25.290;2022-12-11T13:45:51;10.40;99.90
24614;DHT22;12760;46.296;25.290;2022-12-11T13:48:28;10.20;99.90
24614;DHT22;12760;46.296;25.290;2022-12-11T13:50:57;10.00;99.90
24614;DHT22;12760;46.296;25.290;2022-12-11T13:53:23;9.80;99.90
24614;DHT22;12760;46.296;25.290;2022-12-11T13:56:06;10.00;99.90
24614;DHT22;12760;46.296;25.290;2022-12-11T13:58:40;9.90;99.90
24614;DHT22;12760;46.296;25.290;2022-12-11T14:03:32;10.00;99.90
24614;DHT22;12760;46.296;25.290;2022-12-11T14:05:59;9.90;99.90
24614;DHT22;12760;46.296;25.290;2022-12-11T14:08:32;9.80;99.90
24614;DHT22;12760;46.296;25.290;2022-12-11T14:10:58;9.70;99.90
24614;DHT22;12760;46.296;25.290;2022-12-11T14:13:26;9.70;99.90
24614;DHT22;12760;46.296;25.290;2022-12-11T14:15:54;9.80;99.90
24614;DHT22;12760;46.296;25.290;2022-12-11T14:18:25;9.90;99.90
24614;DHT22;12760;46.296;25.290;2022-12-11T14:21:00;10.00;99.90
24614;DHT22;12760;46.296;25.290;2022-12-11T14:23:34;9.90;99.90
24614;DHT22;12760;46.296;25.290;2022-12-11T14:26:16;9.70;99.90
24614;DHT22;12760;46.296;25.290;2022-12-11T14:28:42;9.80;99.90
24614;DHT22;12760;46.296;25.290;2022-12-11T14:31:24;9.80;99.90
24614;DHT22;12760;46.296;25.290;2022-12-11T14:33:54;9.90;99.90
24614;DHT22;12760;46.296;25.290;2022-12-11T14:36:20;10.00;99.90
24614;DHT22;12760;46.296;25.290;2022-12-11T14:38:53;10.00;99.90
24614;DHT22;12760;46.296;25.290;2022-12-11T14:41:29;10.00;99.90
24614;DHT22;12760;46.296;25.290;2022-12-11T14:43:59;10.00;99.90
24614;DHT22;12760;46.296;25.290;2022-12-11T14:46:37;10.00;99.90
24614;DHT22;12760;46.296;25.290;2022-12-11T14:51:41;10.10;99.90
24614;DHT22;12760;46.296;25.290;2022-12-11T14:54:17;10.00;99.90
24614;DHT22;12760;46.296;25.290;2022-12-11T14:56:45;9.90;99.90
24614;DHT22;12760;46.296;25.290;2022-12-11T14:59:18;9.90;99.90
24614;DHT22;12760;46.296;25.290;2022-12-11T15:02:00;9.80;99.90
24614;DHT22;12760;46.296;25.290;2022-12-11T15:04:31;9.80;99.90
24614;DHT22;12760;46.296;25.290;2022-12-11T15:06:58;9.80;99.90
24614;DHT22;12760;46.296;25.290;2022-12-11T15:11:57;9.70;99.90
24614;DHT22;12760;46.296;25.290;2022-12-11T15:14:25;9.60;99.90
24614;DHT22;12760;46.296;25.290;2022-12-11T15:16:53;9.60;99.90
24614;DHT22;12760;46.296;25.290;2022-12-11T15:19:31;9.60;99.90
24614;DHT22;12760;46.296;25.290;2022-12-11T15:22:04;9.80;99.90
24614;DHT22;12760;46.296;25.290;2022-12-11T15:24:42;9.60;99.90
24614;DHT22;12760;46.296;25.290;2022-12-11T15:27:34;9.60;99.90
24614;DHT22;12760;46.296;25.290;2022-12-11T15:32:43;9.60;99.90
24614;DHT22;12760;46.296;25.290;2022-12-11T15:35:23;9.60;99.90
24614;DHT22;12760;46.296;25.290;2022-12-11T15:37:53;9.60;99.90
24614;DHT22;12760;46.296;25.290;2022-12-11T15:40:19;9.50;99.90
24614;DHT22;12760;46.296;25.290;2022-12-11T15:42:45;9.50;99.90
24614;DHT22;12760;46.296;25.290;2022-12-11T15:45:19;9.40;99.90
24614;DHT22;12760;46.296;25.290;2022-12-11T15:47:47;9.20;99.90
24614;DHT22;12760;46.296;25.290;2022-12-11T15:50:24;9.20;99.90
24614;DHT22;12760;46.296;25.290;2022-12-11T15:52:51;9.10;99.90
24614;DHT22;12760;46.296;25.290;2022-12-11T15:55:18;9.00;99.90
24614;DHT22;12760;46.296;25.290;2022-12-11T15:57:56;9.00;99.90
24614;DHT22;12760;46.296;25.290;2022-12-11T16:00:22;9.10;99.90
24614;DHT22;12760;46.296;25.290;2022-12-11T16:02:48;9.10;99.90
24614;DHT22;12760;46.296;25.290;2022-12-11T16:05:14;9.10;99.90
24614;DHT22;12760;46.296;25.290;2022-12-11T16:07:41;9.20;99.90
24614;DHT22;12760;46.296;25.290;2022-12-11T16:10:12;9.30;99.90
24614;DHT22;12760;46.296;25.290;2022-12-11T16:12:39;9.30;99.90
24614;DHT22;12760;46.296;25.290;2022-12-11T16:15:05;9.40;99.90
24614;DHT22;12760;46.296;25.290;2022-12-11T16:17:31;9.40;99.90
24614;DHT22;12760;46.296;25.290;2022-12-11T16:19:56;9.40;99.90
24614;DHT22;12760;46.296;25.290;2022-12-11T16:22:22;9.30;99.90
24614;DHT22;12760;46.296;25.290;2022-12-11T16:24:52;9.20;99.90
24614;DHT22;12760;46.296;25.290;2022-12-11T16:27:19;9.20;99.90
24614;DHT22;12760;46.296;25.290;2022-12-11T16:29:44;9.20;99.90
24614;DHT22;12760;46.296;25.290;2022-12-11T16:32:10;9.20;99.90
24614;DHT22;12760;46.296;25.290;2022-12-11T16:34:36;9.20;99.90
24614;DHT22;12760;46.296;25.290;2022-12-11T16:37:03;9.20;99.90
24614;DHT22;12760;46.296;25.290;2022-12-11T16:39:29;9.10;99.90
24614;DHT22;12760;46.296;25.290;2022-12-11T16:41:55;9.10;99.90
24614;DHT22;12760;46.296;25.290;2022-12-11T16:44:24;9.20;99.90
24614;DHT22;12760;46.296;25.290;2022-12-11T16:46:50;9.20;99.90
24614;DHT22;12760;46.296;25.290;2022-12-11T16:49:16;9.20;99.90
24614;DHT22;12760;46.296;25.290;2022-12-11T16:51:42;9.20;99.90